createdAt,value
2018-02-27T00:02:04.558Z,9.05
2018-02-27T00:04:30.823Z,8.88
2018-02-27T00:06:57.697Z,7.90
2018-02-27T00:09:25.157Z,9.00
2018-02-27T00:11:52.158Z,8.93
2018-02-27T00:14:18.960Z,11.27
2018-02-27T00:16:45.949Z,12.32
2018-02-27T00:19:12.772Z,9.47
2018-02-27T00:21:39.700Z,8.77
2018-02-27T00:24:07.068Z,8.55
2018-02-27T00:26:34.941Z,10.15
2018-02-27T00:29:02.440Z,10.10
2018-02-27T00:31:28.733Z,10.32
2018-02-27T00:33:55.728Z,10.55
2018-02-27T00:36:22.545Z,10.63
2018-02-27T00:38:49.542Z,12.10
2018-02-27T00:41:16.190Z,9.90
2018-02-27T00:43:42.449Z,9.75
2018-02-27T00:46:08.694Z,11.85
2018-02-27T00:48:36.144Z,10.18
2018-02-27T00:51:02.409Z,9.70
2018-02-27T00:53:28.721Z,11.05
2018-02-27T00:55:55.742Z,9.80
2018-02-27T00:58:21.989Z,13.10
2018-02-27T01:00:48.638Z,10.75
2018-02-27T01:03:14.897Z,9.48
2018-02-27T01:05:41.889Z,10.70
2018-02-27T01:08:08.694Z,8.43
2018-02-27T01:10:36.163Z,7.45
2018-02-27T01:13:02.398Z,10.25
2018-02-27T01:15:32.737Z,9.55
2018-02-27T01:17:58.991Z,8.90
2018-02-27T01:20:25.637Z,7.97
2018-02-27T01:22:51.880Z,8.48
2018-02-27T01:25:18.677Z,10.38
2018-02-27T01:27:46.109Z,9.38
2018-02-27T01:30:12.365Z,9.45
2018-02-27T01:32:39.362Z,10.30
2018-02-27T01:35:06.051Z,10.00
2018-02-27T01:37:32.405Z,8.25
2018-02-27T01:39:59.853Z,9.30
2018-02-27T01:42:26.106Z,10.07
2018-02-27T01:44:53.110Z,9.75
2018-02-27T01:47:19.400Z,11.20
2018-02-27T01:49:46.405Z,10.50
2018-02-27T01:52:13.078Z,8.45
2018-02-27T01:54:40.078Z,10.40
2018-02-27T01:57:06.334Z,9.63
2018-02-27T01:59:34.045Z,8.30
2018-02-27T02:02:01.054Z,8.90
2018-02-27T02:04:27.309Z,9.65
2018-02-27T02:06:54.163Z,10.63
2018-02-27T02:09:20.921Z,8.77
2018-02-27T02:11:48.597Z,8.93
2018-02-27T02:14:15.586Z,10.35
2018-02-27T02:16:41.833Z,8.98
2018-02-27T02:19:08.640Z,10.02
2018-02-27T02:21:35.380Z,9.68
2018-02-27T02:24:01.649Z,13.00
2018-02-27T02:26:27.892Z,11.57
2018-02-27T02:28:55.107Z,9.80
2018-02-27T02:31:21.947Z,9.60
2018-02-27T02:33:48.198Z,9.90
2018-02-27T02:36:14.465Z,12.93
2018-02-27T02:38:40.810Z,11.20
2018-02-27T02:41:07.441Z,12.37
2018-02-27T02:43:33.720Z,11.25
2018-02-27T02:46:00.726Z,9.20
2018-02-27T02:48:26.994Z,7.35
2018-02-27T02:50:53.237Z,7.03
2018-02-27T02:53:20.353Z,9.00
2018-02-27T02:55:46.657Z,7.87
2018-02-27T02:58:12.918Z,9.63
2018-02-27T03:00:40.153Z,11.35
2018-02-27T03:03:06.422Z,9.55
2018-02-27T03:05:32.687Z,10.20
2018-02-27T03:07:59.549Z,8.50
2018-02-27T03:10:27.209Z,11.05
2018-02-27T03:12:54.215Z,12.00
2018-02-27T03:15:21.118Z,10.43
2018-02-27T03:17:48.113Z,10.23
2018-02-27T03:20:15.018Z,9.20
2018-02-27T03:22:42.022Z,10.00
2018-02-27T03:25:08.312Z,10.18
2018-02-27T03:27:35.753Z,11.02
2018-02-27T03:30:02.775Z,8.67
2018-02-27T03:32:29.049Z,9.07
2018-02-27T03:34:56.058Z,7.82
2018-02-27T03:37:22.337Z,9.20
2018-02-27T03:39:49.953Z,10.30
2018-02-27T03:42:16.214Z,8.30
2018-02-27T03:44:42.477Z,9.80
2018-02-27T03:47:09.842Z,12.73
2018-02-27T03:49:36.089Z,12.50
2018-02-27T03:52:02.448Z,11.30
2018-02-27T03:54:29.462Z,11.80
2018-02-27T03:56:56.441Z,12.40
2018-02-27T03:59:23.140Z,10.40
2018-02-27T04:01:49.390Z,12.25
2018-02-27T04:04:16.958Z,17.00
2018-02-27T04:06:44.406Z,13.15
2018-02-27T04:09:11.893Z,12.55
2018-02-27T04:11:38.148Z,11.30
2018-02-27T04:14:05.062Z,11.90
2018-02-27T04:16:32.494Z,12.10
2018-02-27T04:18:58.782Z,12.02
2018-02-27T04:21:25.041Z,11.00
2018-02-27T04:23:51.313Z,11.63
2018-02-27T04:26:17.554Z,9.95
2018-02-27T04:28:46.457Z,10.90
2018-02-27T04:31:14.573Z,8.73
2018-02-27T04:33:40.841Z,10.45
2018-02-27T04:36:07.113Z,8.50
2018-02-27T04:38:34.110Z,11.27
2018-02-27T04:41:00.703Z,9.98
2018-02-27T04:43:27.705Z,9.50
2018-02-27T04:45:53.966Z,8.45
2018-02-27T04:48:20.529Z,9.48
2018-02-27T04:50:47.845Z,8.15
2018-02-27T04:53:14.113Z,8.07
2018-02-27T04:55:41.718Z,8.35
2018-02-27T04:58:07.974Z,8.70
2018-02-27T05:00:34.631Z,8.57
2018-02-27T05:03:00.893Z,9.68
2018-02-27T05:05:27.905Z,9.23
2018-02-27T05:07:54.576Z,10.10
2018-02-27T05:10:21.455Z,10.55
2018-02-27T05:12:47.718Z,11.30
2018-02-27T05:15:14.409Z,8.45
2018-02-27T05:17:40.670Z,12.50
2018-02-27T05:20:06.912Z,13.40
2018-02-27T05:22:33.185Z,12.53
2018-02-27T05:25:00.078Z,13.38
2018-02-27T05:27:27.558Z,13.40
2018-02-27T05:29:54.393Z,12.48
2018-02-27T05:32:21.860Z,14.30
2018-02-27T05:34:48.131Z,14.38
2018-02-27T05:37:14.801Z,15.40
2018-02-27T05:39:41.617Z,15.60
2018-02-27T05:42:07.886Z,12.95
2018-02-27T05:44:34.142Z,14.83
2018-02-27T05:47:01.162Z,15.45
2018-02-27T05:49:27.425Z,14.40
2018-02-27T05:51:54.526Z,14.90
2018-02-27T05:54:21.163Z,13.82
2018-02-27T05:56:48.185Z,12.48
2018-02-27T05:59:15.647Z,10.68
2018-02-27T06:01:42.680Z,12.63
2018-02-27T06:04:08.934Z,13.15
2018-02-27T06:06:35.961Z,15.83
2018-02-27T06:09:02.933Z,12.60
2018-02-27T06:11:30.400Z,13.77
2018-02-27T06:13:57.384Z,13.40
2018-02-27T06:16:23.650Z,14.35
2018-02-27T06:18:50.225Z,10.47
2018-02-27T06:21:17.286Z,10.20
2018-02-27T06:23:43.901Z,10.68
2018-02-27T06:26:10.165Z,10.68
2018-02-27T06:28:37.825Z,11.87
2018-02-27T06:31:05.353Z,10.80
2018-02-27T06:33:32.341Z,10.90
2018-02-27T06:35:59.333Z,11.55
2018-02-27T06:38:25.589Z,12.93
2018-02-27T06:40:52.325Z,16.92
2018-02-27T06:43:18.601Z,15.63
2018-02-27T06:45:45.631Z,14.75
2018-02-27T06:48:11.913Z,15.38
2018-02-27T06:50:38.169Z,17.87
2018-02-27T06:53:05.189Z,18.07
2018-02-27T06:55:31.461Z,17.80
2018-02-27T06:57:57.719Z,17.37
2018-02-27T07:00:24.310Z,16.83
2018-02-27T07:02:51.408Z,18.48
2018-02-27T07:05:17.793Z,18.27
2018-02-27T07:07:44.402Z,23.67
2018-02-27T07:10:11.279Z,18.20
2018-02-27T07:12:38.274Z,26.98
2018-02-27T07:15:04.539Z,27.37
2018-02-27T07:17:30.825Z,22.65
2018-02-27T07:19:57.528Z,19.12
2018-02-27T07:22:25.102Z,19.35
2018-02-27T07:24:52.097Z,18.70
2018-02-27T07:27:18.793Z,19.65
2018-02-27T07:29:46.473Z,21.33
2018-02-27T07:32:12.721Z,19.25
2018-02-27T07:34:38.998Z,19.15
2018-02-27T07:37:05.276Z,19.05
2018-02-27T07:39:32.262Z,18.27
2018-02-27T07:41:58.850Z,18.98
2018-02-27T07:44:25.856Z,20.33
2018-02-27T07:46:52.118Z,17.75
2018-02-27T07:49:18.761Z,18.77
2018-02-27T07:51:45.010Z,20.77
2018-02-27T07:54:11.253Z,18.27
2018-02-27T07:56:38.284Z,22.13
2018-02-27T07:59:05.144Z,22.00
2018-02-27T08:01:31.917Z,22.30
2018-02-27T08:03:59.587Z,22.40
2018-02-27T08:06:27.029Z,23.20
2018-02-27T08:08:54.462Z,27.90
2018-02-27T08:11:20.741Z,27.52
2018-02-27T08:13:47.741Z,23.65
2018-02-27T08:16:14.538Z,29.27
2018-02-27T08:18:41.700Z,19.83
2018-02-27T08:21:07.959Z,24.80
2018-02-27T08:23:34.566Z,19.87
2018-02-27T08:26:01.569Z,19.75
2018-02-27T08:28:28.129Z,20.27
2018-02-27T08:30:54.782Z,21.75
2018-02-27T08:33:21.143Z,19.98
2018-02-27T08:35:48.126Z,20.70
2018-02-27T08:38:14.640Z,21.33
2018-02-27T08:40:41.595Z,21.10
2018-02-27T08:43:07.858Z,20.70
2018-02-27T08:45:34.131Z,20.98
2018-02-27T08:48:01.209Z,21.12
2018-02-27T08:50:28.202Z,19.37
2018-02-27T08:52:55.238Z,19.90
2018-02-27T08:55:21.537Z,17.87
2018-02-27T08:57:48.529Z,20.75
2018-02-27T09:00:15.214Z,20.20
2018-02-27T09:02:41.986Z,20.27
2018-02-27T09:05:09.485Z,21.53
2018-02-27T09:07:35.741Z,18.65
2018-02-27T09:10:02.526Z,19.75
2018-02-27T09:12:29.537Z,21.25
2018-02-27T09:14:56.336Z,20.47
2018-02-27T09:17:22.673Z,20.15
2018-02-27T09:19:49.662Z,20.63
2018-02-27T09:22:16.561Z,20.83
2018-02-27T09:24:43.565Z,20.25
2018-02-27T09:27:10.397Z,20.30
2018-02-27T09:29:37.078Z,22.08
2018-02-27T09:32:03.327Z,19.03
2018-02-27T09:34:29.617Z,21.80
2018-02-27T09:36:55.899Z,19.60
2018-02-27T09:39:22.253Z,19.70
2018-02-27T09:41:49.624Z,18.42
2018-02-27T09:44:16.213Z,18.92
2018-02-27T09:46:42.462Z,19.47
2018-02-27T09:49:08.743Z,18.75
2018-02-27T09:51:35.303Z,19.40
2018-02-27T09:54:01.561Z,19.57
2018-02-27T09:56:27.956Z,20.60
2018-02-27T09:58:54.773Z,18.87
2018-02-27T10:01:22.182Z,21.20
2018-02-27T10:03:48.774Z,20.60
2018-02-27T10:06:15.043Z,19.00
2018-02-27T10:08:41.775Z,20.00
2018-02-27T10:11:08.632Z,19.27
2018-02-27T10:13:36.320Z,19.40
2018-02-27T10:16:02.627Z,18.63
2018-02-27T10:18:29.610Z,18.90
2018-02-27T10:20:55.877Z,20.20
2018-02-27T10:23:22.154Z,18.87
2018-02-27T10:25:48.511Z,19.40
2018-02-27T10:28:15.768Z,20.08
2018-02-27T10:30:42.421Z,20.83
2018-02-27T10:33:08.662Z,19.83
2018-02-27T10:35:34.914Z,21.17
2018-02-27T10:38:01.222Z,20.23
2018-02-27T10:40:27.862Z,19.33
2018-02-27T10:42:54.787Z,21.33
2018-02-27T10:45:21.882Z,21.07
2018-02-27T10:47:48.559Z,19.27
2018-02-27T10:50:14.832Z,21.77
2018-02-27T10:52:41.075Z,20.70
2018-02-27T10:55:07.336Z,21.43
2018-02-27T10:57:34.021Z,19.80
2018-02-27T11:00:01.473Z,20.60
2018-02-27T11:02:27.734Z,21.23
2018-02-27T11:04:54.002Z,20.20
2018-02-27T11:07:20.299Z,19.87
2018-02-27T11:09:47.959Z,21.33
2018-02-27T11:12:14.941Z,22.20
2018-02-27T11:14:41.204Z,21.67
2018-02-27T11:17:07.493Z,22.50
2018-02-27T11:19:33.775Z,21.57
2018-02-27T11:22:00.134Z,19.77
2018-02-27T11:24:26.697Z,20.17
2018-02-27T11:26:54.445Z,17.97
2018-02-27T11:29:21.238Z,19.90
2018-02-27T11:31:47.486Z,19.53
2018-02-27T11:34:13.748Z,18.90
2018-02-27T11:36:40.030Z,19.80
2018-02-27T11:39:06.770Z,21.23
2018-02-27T11:41:34.199Z,18.67
2018-02-27T11:44:01.169Z,19.97
2018-02-27T11:46:28.160Z,21.00
2018-02-27T11:48:55.071Z,20.93
2018-02-27T11:51:22.072Z,18.67
2018-02-27T11:53:49.389Z,20.07
2018-02-27T11:56:16.941Z,21.60
2018-02-27T11:58:44.374Z,20.40
2018-02-27T12:01:11.250Z,17.50
2018-02-27T12:03:38.246Z,20.00
2018-02-27T12:06:04.515Z,18.73
2018-02-27T12:08:31.406Z,19.90
2018-02-27T12:10:57.750Z,19.60
2018-02-27T12:13:24.004Z,17.50
2018-02-27T12:15:50.613Z,19.40
2018-02-27T12:18:17.606Z,18.60
2018-02-27T12:20:43.958Z,17.40
2018-02-27T12:23:10.234Z,18.00
2018-02-27T12:25:37.225Z,19.67
2018-02-27T12:28:04.041Z,19.07
2018-02-27T12:30:30.884Z,20.23
2018-02-27T12:32:58.200Z,19.10
2018-02-27T12:35:24.462Z,20.90
2018-02-27T12:37:51.933Z,20.13
2018-02-27T12:40:19.416Z,18.20
2018-02-27T12:42:45.680Z,19.23
2018-02-27T12:45:11.937Z,19.23
2018-02-27T12:47:38.509Z,18.50
2018-02-27T12:50:05.543Z,19.20
2018-02-27T12:52:32.181Z,19.60
2018-02-27T12:54:58.835Z,18.30
2018-02-27T12:57:25.646Z,19.43
2018-02-27T12:59:52.399Z,18.60
2018-02-27T13:02:18.673Z,18.97
2018-02-27T13:04:45.671Z,21.10
2018-02-27T13:07:12.271Z,16.73
2018-02-27T13:09:39.762Z,15.70
2018-02-27T13:12:06.078Z,17.63
2018-02-27T13:14:33.061Z,21.30
2018-02-27T13:16:59.373Z,17.10
2018-02-27T13:19:25.678Z,18.90
2018-02-27T13:21:52.055Z,17.90
2018-02-27T13:24:18.352Z,18.67
2018-02-27T13:26:45.118Z,18.83
2018-02-27T13:29:12.673Z,18.80
2018-02-27T13:31:39.670Z,18.20
2018-02-27T13:34:06.987Z,18.10
2018-02-27T13:36:33.986Z,17.83
2018-02-27T13:39:00.293Z,18.50
2018-02-27T13:41:26.952Z,18.93
2018-02-27T13:43:53.223Z,16.60
2018-02-27T13:46:20.011Z,15.70
2018-02-27T13:48:46.295Z,15.43
2018-02-27T13:51:13.110Z,17.40
2018-02-27T13:53:39.804Z,15.53
2018-02-27T13:56:06.101Z,16.60
2018-02-27T13:58:32.366Z,16.67
2018-02-27T14:00:59.237Z,14.67
2018-02-27T14:03:26.701Z,15.50
2018-02-27T14:05:53.714Z,16.97
2018-02-27T14:08:21.124Z,16.50
2018-02-27T14:10:48.127Z,15.63
2018-02-27T14:13:14.387Z,16.80
2018-02-27T14:15:40.678Z,15.63
2018-02-27T14:18:06.953Z,15.07
2018-02-27T14:20:34.038Z,16.80
2018-02-27T14:23:01.086Z,16.10
2018-02-27T14:25:28.086Z,14.20
2018-02-27T14:27:54.887Z,16.47
2018-02-27T14:30:22.319Z,16.77
2018-02-27T14:32:49.294Z,13.03
2018-02-27T14:35:16.290Z,14.83
2018-02-27T14:37:42.562Z,15.23
2018-02-27T14:40:08.846Z,13.87
2018-02-27T14:42:35.397Z,13.70
2018-02-27T14:45:01.687Z,14.20
2018-02-27T14:47:29.033Z,13.30
2018-02-27T14:49:55.933Z,11.60
2018-02-27T14:52:22.190Z,13.37
2018-02-27T14:54:48.478Z,13.53
2018-02-27T14:57:15.761Z,12.30
2018-02-27T14:59:42.889Z,11.00
2018-02-27T15:02:10.622Z,12.70
2018-02-27T15:04:37.265Z,12.17
2018-02-27T15:07:03.566Z,12.87
2018-02-27T15:09:45.440Z,14.23
2018-02-27T15:12:11.704Z,13.73
2018-02-27T15:14:37.968Z,12.63
2018-02-27T15:17:04.528Z,12.57
2018-02-27T15:19:31.577Z,13.45
2018-02-27T15:21:58.613Z,14.33
2018-02-27T15:24:25.183Z,14.93
2018-02-27T15:26:52.645Z,14.37
2018-02-27T15:29:20.622Z,13.00
2018-02-27T15:31:47.605Z,13.47
2018-02-27T15:34:13.865Z,13.63
2018-02-27T15:36:40.409Z,12.40
2018-02-27T15:39:06.674Z,13.55
2018-02-27T15:41:34.558Z,12.07
2018-02-27T15:44:02.117Z,11.77
2018-02-27T15:46:29.886Z,10.27
2018-02-27T15:48:57.327Z,13.37
2018-02-27T15:51:24.809Z,11.07
2018-02-27T15:53:51.097Z,11.17
2018-02-27T15:56:17.350Z,12.97
2018-02-27T15:58:44.096Z,12.05
2018-02-27T16:01:10.994Z,14.70
2018-02-27T16:03:37.260Z,14.02
2018-02-27T16:06:03.530Z,15.32
2018-02-27T16:08:31.299Z,29.33
2018-02-27T16:10:58.320Z,16.02
2018-02-27T16:13:24.601Z,15.43
2018-02-27T16:15:51.643Z,15.33
2018-02-27T16:18:18.656Z,14.82
2018-02-27T16:20:45.030Z,18.65
2018-02-27T16:23:11.585Z,15.17
2018-02-27T16:25:38.590Z,14.30
2018-02-27T16:28:05.353Z,21.03
2018-02-27T16:30:32.137Z,14.20
2018-02-27T16:32:58.392Z,23.93
2018-02-27T16:35:24.681Z,21.60
2018-02-27T16:37:51.779Z,20.83
2018-02-27T16:40:18.509Z,14.57
2018-02-27T16:42:45.433Z,13.48
2018-02-27T16:45:13.122Z,11.95
2018-02-27T16:47:39.374Z,12.37
2018-02-27T16:50:06.190Z,14.32
2018-02-27T16:52:33.181Z,11.60
2018-02-27T16:55:00.095Z,19.70
2018-02-27T16:57:27.149Z,11.60
2018-02-27T16:59:54.530Z,11.35
2018-02-27T17:02:20.793Z,11.63
2018-02-27T17:04:47.080Z,11.90
2018-02-27T17:07:14.619Z,13.25
2018-02-27T17:09:41.161Z,13.15
2018-02-27T17:12:07.406Z,10.20
2018-02-27T17:14:34.413Z,12.25
2018-02-27T17:17:00.920Z,12.80
2018-02-27T17:19:27.233Z,8.98
2018-02-27T17:21:54.341Z,8.02
2018-02-27T17:24:20.665Z,7.40
2018-02-27T17:26:47.581Z,6.45
2018-02-27T17:29:15.052Z,7.55
2018-02-27T17:31:41.318Z,6.85
2018-02-27T17:34:08.128Z,6.60
2018-02-27T17:36:35.117Z,8.35
2018-02-27T17:39:01.962Z,9.70
2018-02-27T17:41:29.537Z,9.85
2018-02-27T17:43:56.288Z,7.82
2018-02-27T17:46:23.191Z,7.93
2018-02-27T17:48:50.198Z,8.02
2018-02-27T17:51:16.582Z,7.30
2018-02-27T17:53:43.598Z,9.13
2018-02-27T17:56:10.591Z,10.07
2018-02-27T17:58:37.565Z,12.57
2018-02-27T18:01:04.374Z,10.50
2018-02-27T18:03:31.927Z,12.40
2018-02-27T18:05:58.195Z,11.60
2018-02-27T18:08:25.239Z,11.15
2018-02-27T18:10:52.235Z,12.68
2018-02-27T18:13:18.504Z,8.65
2018-02-27T18:15:45.062Z,7.37
2018-02-27T18:18:12.064Z,10.25
2018-02-27T18:20:38.422Z,10.40
2018-02-27T18:23:05.054Z,11.32
2018-02-27T18:25:31.322Z,9.45
2018-02-27T18:27:58.689Z,10.85
2018-02-27T18:30:26.062Z,12.30
2018-02-27T18:32:52.374Z,14.38
2018-02-27T18:35:19.193Z,12.23
2018-02-27T18:37:45.973Z,10.18
2018-02-27T18:40:13.438Z,8.80
2018-02-27T18:42:40.805Z,8.27
2018-02-27T18:45:08.279Z,7.43
2018-02-27T18:47:35.007Z,8.73
2018-02-27T18:50:02.018Z,6.35
2018-02-27T18:52:28.404Z,11.40
2018-02-27T18:54:55.430Z,8.35
2018-02-27T18:57:21.917Z,8.35
2018-02-27T18:59:48.635Z,7.15
2018-02-27T19:02:16.097Z,9.35
2018-02-27T19:04:43.542Z,9.60
2018-02-27T19:07:10.195Z,8.65
2018-02-27T19:09:37.881Z,8.35
2018-02-27T19:12:04.531Z,7.95
2018-02-27T19:14:32.177Z,7.78
2018-02-27T19:16:59.183Z,6.93
2018-02-27T19:19:25.449Z,8.60
2018-02-27T19:21:52.797Z,7.32
2018-02-27T19:24:19.061Z,8.15
2018-02-27T19:26:46.503Z,10.03
2018-02-27T19:29:13.258Z,9.05
2018-02-27T19:31:40.616Z,8.38
2018-02-27T19:34:08.410Z,8.18
2018-02-27T19:36:35.133Z,7.45
2018-02-27T19:39:02.540Z,7.43
2018-02-27T19:41:28.826Z,8.32
2018-02-27T19:43:55.438Z,7.30
2018-02-27T19:46:21.701Z,8.70
2018-02-27T19:48:48.711Z,8.02
2018-02-27T19:51:15.313Z,10.07
2018-02-27T19:53:42.307Z,8.55
2018-02-27T19:56:08.681Z,8.65
2018-02-27T19:58:35.452Z,17.15
2018-02-27T20:01:02.298Z,14.00
2018-02-27T20:03:29.758Z,11.82
2018-02-27T20:05:57.222Z,11.20
2018-02-27T20:08:24.234Z,10.20
2018-02-27T20:10:50.774Z,10.95
2018-02-27T20:13:17.589Z,15.23
2018-02-27T20:15:43.859Z,11.00
2018-02-27T20:18:10.856Z,10.68
2018-02-27T20:20:37.870Z,11.55
2018-02-27T20:23:10.145Z,10.18
2018-02-27T20:25:37.426Z,9.55
2018-02-27T20:28:11.755Z,7.15
2018-02-27T20:30:38.484Z,7.70
2018-02-27T20:33:06.028Z,12.73
2018-02-27T20:35:33.821Z,12.32
2018-02-27T20:38:01.116Z,10.55
2018-02-27T20:40:28.369Z,9.63
2018-02-27T20:42:54.811Z,8.15
2018-02-27T20:45:21.707Z,8.50
2018-02-27T20:47:48.253Z,9.23
2018-02-27T20:50:15.421Z,11.50
2018-02-27T20:52:43.535Z,10.60
2018-02-27T20:55:09.893Z,15.10
2018-02-27T20:57:37.541Z,13.40
2018-02-27T21:00:03.928Z,11.63
2018-02-27T21:02:31.646Z,11.00
2018-02-27T21:04:58.692Z,16.17
2018-02-27T21:07:25.239Z,14.15
2018-02-27T21:09:52.391Z,9.52
2018-02-27T21:12:18.736Z,9.40
2018-02-27T21:14:46.083Z,9.40
2018-02-27T21:17:13.346Z,12.07
2018-02-27T21:19:39.960Z,10.43
2018-02-27T21:22:07.062Z,11.70
2018-02-27T21:24:33.544Z,22.95
2018-02-27T21:27:01.382Z,47.72
2018-02-27T21:29:28.299Z,26.08
2018-02-27T21:31:55.046Z,18.62
2018-02-27T21:34:22.004Z,15.05
2018-02-27T21:36:49.494Z,9.85
2018-02-27T21:39:15.816Z,11.88
2018-02-27T21:41:42.344Z,9.48
2018-02-27T21:44:09.115Z,10.13
2018-02-27T21:46:36.528Z,9.02
2018-02-27T21:49:03.171Z,10.45
2018-02-27T21:51:29.734Z,8.80
2018-02-27T21:53:56.696Z,11.60
2018-02-27T21:56:23.094Z,13.10
2018-02-27T21:58:49.625Z,13.05
2018-02-27T22:01:17.089Z,10.07
2018-02-27T22:03:44.198Z,8.65
2018-02-27T22:06:10.855Z,11.20
2018-02-27T22:08:37.146Z,8.73
2018-02-27T22:11:03.838Z,11.30
2018-02-27T22:13:30.677Z,11.07
2018-02-27T22:15:56.965Z,11.23
2018-02-27T22:18:23.264Z,9.55
2018-02-27T22:20:49.552Z,11.52
2018-02-27T22:23:15.811Z,8.98
2018-02-27T22:25:42.239Z,10.43
2018-02-27T22:28:09.158Z,8.60
2018-02-27T22:30:35.893Z,9.25
2018-02-27T22:33:03.571Z,11.40
2018-02-27T22:35:30.281Z,12.65
2018-02-27T22:37:56.866Z,10.18
2018-02-27T22:40:23.413Z,9.43
2018-02-27T22:42:49.655Z,11.05
2018-02-27T22:45:15.913Z,10.50
2018-02-27T22:47:42.216Z,9.10
2018-02-27T22:50:08.487Z,9.57
2018-02-27T22:52:35.291Z,6.03
2018-02-27T22:55:01.590Z,8.55
2018-02-27T22:57:27.837Z,9.13
2018-02-27T22:59:55.197Z,11.23
2018-02-27T23:02:22.973Z,11.23
2018-02-27T23:04:50.741Z,9.27
2018-02-27T23:07:18.505Z,8.48
2018-02-27T23:09:46.277Z,8.85
2018-02-27T23:12:14.049Z,9.45
2018-02-27T23:14:41.814Z,9.38
2018-02-27T23:17:08.792Z,7.55
2018-02-27T23:19:35.037Z,7.43
2018-02-27T23:22:02.872Z,9.60
2018-02-27T23:24:49.934Z,7.75
2018-02-27T23:27:18.304Z,6.97
2018-02-27T23:29:46.642Z,6.25
2018-02-27T23:32:17.719Z,9.82
2018-02-27T23:37:53.147Z,9.10
2018-02-27T23:40:20.145Z,9.93
2018-02-27T23:42:46.397Z,6.65
2018-02-27T23:45:12.965Z,7.40
2018-02-27T23:47:39.957Z,7.20
2018-02-27T23:50:06.642Z,5.78
2018-02-27T23:52:32.890Z,7.00
2018-02-27T23:54:59.888Z,6.22
2018-02-27T23:57:26.197Z,8.18
2018-02-27T23:59:53.173Z,6.90
